Date,TemperatureHighF,TemperatureAvgF,TemperatureLowF,DewpointHighF,DewpointAvgF,DewpointLowF,HumidityHigh,HumidityAvg,HumidityLow,PressureMaxIn,PressureMinIn,WindSpeedMaxMPH,WindSpeedAvgMPH,GustSpeedMaxMPH,PrecipitationSumIn
2014-1-1,86,73,64,74,67,61,97,84,63,30.21,30.06,8,2,0,0.00
2014-1-2,82,73,66,74,70,66,100,92,73,30.06,29.93,7,0,0,0.17
2014-1-3,69,57,49,69,49,38,98,75,49,30.24,29.96,15,5,0,0.00
2014-1-4,67,59,49,66,57,45,99,94,86,30.20,30.08,11,3,0,0.39
2014-1-5,84,72,66,74,69,65,99,89,69,30.08,29.92,14,2,0,0.00
2014-1-6,78,66,52,73,60,31,100,83,43,30.29,30.00,17,4,0,0.00
2014-1-7,57,50,45,41,33,26,75,53,32,30.39,30.26,14,5,0,0.00
2014-1-8,66,57,48,63,54,41,97,90,77,30.34,30.21,21,7,0,0.01
2014-1-9,77,69,64,74,68,63,98,95,87,30.26,30.14,13,4,0,0.00
2014-1-10,82,74,68,75,71,68,99,91,70,30.19,30.07,6,1,0,0.01
2014-1-11,84,74,69,76,72,68,100,92,75,30.14,30.02,9,1,0,0.00
2014-1-12,79,70,60,69,63,56,98,79,53,30.21,30.07,6,1,0,0.01
2014-1-13,83,69,58,72,65,55,96,86,68,30.17,30.05,8,0,0,0.00
2014-1-14,80,72,68,76,69,65,99,91,75,30.07,29.96,8,0,0,0.00
2014-1-15,68,62,59,66,57,52,94,84,68,30.11,29.99,10,1,0,0.00
2014-1-16,60,54,46,59,45,39,95,73,50,30.20,30.00,13,3,0,0.08
2014-1-17,63,51,40,49,42,30,93,72,31,30.26,30.15,6,1,0,0.01
2014-1-18,66,54,46,54,46,37,98,75,50,30.29,30.18,13,2,0,0.00
2014-1-19,66,54,38,58,48,36,96,82,66,30.30,30.19,8,1,0,0.00
2014-1-20,76,64,56,61,59,55,98,85,58,30.19,30.08,6,0,0,0.00
2014-1-21,70,65,62,66,64,61,98,94,82,30.09,29.93,7,1,0,0.07
2014-1-22,65,56,46,62,48,43,90,76,63,30.22,29.96,18,4,0,0.00
2014-1-23,69,54,39,50,43,37,93,70,35,30.33,30.20,10,1,0,0.00
2014-1-24,69,57,48,50,46,41,87,70,45,30.43,30.25,15,5,0,0.00
2014-1-25,74,58,48,62,53,45,97,84,65,30.27,30.09,8,1,0,0.00
2014-1-26,73,61,53,62,54,-100,99,82,51,30.14,30.02,4,-21,0,0.00
2014-1-27,80,67,57,70,64,56,99,89,69,30.07,29.98,8,0,0,0.00
2014-1-28,84,69,61,72,66,61,100,90,57,30.11,30.00,5,0,0,0.00
2014-1-29,68,62,55,68,61,52,100,96,90,30.16,30.01,13,3,0,0.04
2014-1-30,61,58,55,61,58,53,99,97,92,30.16,30.07,13,3,0,1.49
2014-1-31,83,68,58,76,66,58,100,94,76,30.12,30.02,10,2,0,0.40
2014-2-1,86,74,67,74,70,67,100,89,61,30.15,30.07,11,1,0,0.00
2014-2-2,88,74,65,73,68,65,100,85,55,30.17,30.05,9,1,0,0.00
2014-2-3,87,74,67,76,71,67,100,90,67,30.14,30.04,5,0,0,0.00
2014-2-4,88,75,68,74,70,67,99,85,57,30.14,30.03,8,1,0,0.00
2014-2-5,85,75,70,76,72,69,99,91,73,30.12,30.02,7,0,0,0.00
2014-2-6,82,74,70,75,72,70,100,93,76,30.15,30.04,6,0,0,0.00
2014-2-7,83,71,60,71,67,60,98,88,66,30.18,30.07,8,2,0,0.00
2014-2-8,84,72,67,74,69,64,100,90,70,30.14,30.04,9,1,0,0.00
2014-2-9,79,69,63,71,65,59,99,90,73,30.13,30.04,9,1,0,0.00
2014-2-10,84,68,58,68,62,57,96,82,57,30.13,30.03,6,1,0,0.00
2014-2-11,83,68,59,70,64,58,99,87,64,30.11,30.04,6,0,0,0.00
2014-2-12,83,69,58,73,66,57,99,90,69,30.07,29.85,21,1,0,0.59
2014-2-13,70,63,55,68,58,51,99,84,72,30.02,29.78,18,6,0,0.37
2014-2-14,68,57,47,54,51,46,96,82,57,30.13,30.00,8,1,0,0.00
2014-2-15,75,64,54,67,57,44,100,80,51,30.18,29.99,16,3,0,0.00
2014-2-16,76,59,47,56,50,44,94,75,33,30.23,30.14,8,1,0,0.00
2014-2-17,83,65,50,64,57,47,91,76,42,30.25,30.15,8,1,0,0.00
2014-2-18,84,68,56,68,61,55,99,82,44,30.27,30.16,7,1,0,0.00
2014-2-19,86,69,57,69,64,56,98,83,52,30.20,30.09,12,1,0,0.00
2014-2-20,87,74,62,72,68,61,99,83,58,30.18,30.06,14,2,0,0.00
2014-2-21,86,75,69,75,71,68,99,88,66,30.11,30.04,17,1,0,0.00
2014-2-22,84,75,68,76,72,68,100,90,70,30.14,30.04,9,1,0,0.00
2014-2-23,87,75,68,75,71,67,100,89,62,30.12,30.02,6,1,0,0.00
2014-2-24,84,73,66,73,70,66,99,89,64,30.10,30.02,13,1,0,0.00
2014-2-25,79,71,66,71,66,-100,99,89,75,30.10,29.98,8,-9,0,0.00
2014-2-26,79,71,63,72,68,62,99,90,72,30.01,29.82,7,1,0,0.02
2014-2-27,74,68,60,70,65,59,97,88,75,29.99,29.82,13,3,0,0.07
2014-2-28,70,62,56,59,56,51,98,83,65,30.13,29.93,13,2,0,0.30
2014-3-1,78,64,52,62,56,49,98,77,47,30.23,30.09,12,2,0,0.00
2014-3-2,84,69,60,68,63,58,99,83,44,30.23,30.10,9,1,0,0.00
2014-3-3,83,70,60,69,64,59,99,84,55,30.12,30.03,8,1,0,0.00
2014-3-4,87,72,61,71,64,58,100,80,43,30.09,29.99,8,1,0,0.00
2014-3-5,86,74,64,74,68,63,97,84,61,30.06,29.95,6,0,0,0.00
2014-3-6,78,68,65,73,64,-100,99,92,76,30.02,29.80,18,-20,0,0.26
2014-3-7,74,69,62,70,62,55,96,80,64,30.07,29.83,17,6,0,0.00
2014-3-8,75,62,53,61,55,50,94,77,49,30.19,30.06,8,2,0,0.00
2014-3-9,82,66,54,66,60,54,99,82,56,30.22,30.12,8,1,0,0.00
2014-3-10,80,68,60,66,62,59,98,81,58,30.16,30.03,8,1,0,0.00
2014-3-11,84,70,60,69,64,59,99,82,46,30.06,29.89,8,0,0,0.00
2014-3-12,83,74,66,74,70,65,99,88,68,29.92,29.83,11,1,0,0.00
2014-3-13,78,70,58,71,55,41,94,62,30,30.20,29.91,15,3,0,0.00
2014-3-14,65,54,50,53,48,46,89,80,65,30.28,30.20,7,1,0,0.00
2014-3-18,78,71,62,66,61,57,87,71,55,30.06,29.91,22,4,0,0.15
2014-3-19,78,66,58,69,61,55,98,85,62,30.12,30.02,9,2,0,0.00
2014-3-20,77,67,59,68,63,59,99,88,66,30.10,30.01,14,3,0,0.00
2014-3-21,87,71,62,71,66,60,96,83,48,30.09,30.00,11,1,0,0.00
2014-3-22,81,71,62,71,67,62,99,86,64,30.12,30.03,9,1,0,0.00
2014-3-23,84,75,69,73,70,67,99,85,58,30.10,30.03,11,2,0,0.00
2014-3-24,74,71,66,73,68,65,97,90,80,30.09,29.95,7,1,0,0.23
2014-3-25,78,69,64,72,65,53,100,87,65,30.08,29.91,21,4,0,0.55
2014-3-26,71,62,53,54,44,36,77,55,33,30.29,30.07,15,4,0,0.00
2014-3-27,77,66,54,62,57,50,94,75,55,30.31,30.20,16,4,0,0.00
2014-3-28,86,73,61,72,66,60,96,80,59,30.21,30.03,16,3,0,0.00
2014-3-29,81,74,67,76,72,67,99,93,84,30.09,29.96,13,2,0,0.76
2014-3-30,77,69,60,71,61,54,95,77,46,30.12,29.95,16,4,0,0.00
2014-3-31,80,66,55,64,57,51,91,73,48,30.18,30.09,10,1,0,0.00
2014-4-1,86,70,58,68,63,57,99,80,44,30.20,30.11,10,2,0,0.00
2014-4-2,86,71,58,69,64,58,98,79,43,30.21,30.12,9,2,0,0.00
2014-4-3,86,73,61,71,65,59,96,78,51,30.18,30.06,7,0,0,0.00
2014-4-4,88,74,64,70,66,63,97,78,48,30.10,30.02,7,0,0,0.00
2014-4-5,84,75,65,73,69,65,99,83,59,30.07,30.00,7,1,0,0.00
2014-4-6,87,76,65,72,68,65,98,80,49,30.07,29.95,15,1,0,0.00
2014-4-7,89,79,69,76,71,67,96,79,59,30.00,29.87,12,2,0,0.00
2014-4-8,83,75,65,78,72,63,98,90,78,29.96,29.83,13,3,0,0.64
2014-4-9,75,70,62,62,58,54,85,67,56,30.19,29.94,22,8,0,0.00
2014-4-10,84,70,57,62,58,55,92,68,39,30.29,30.18,15,4,0,0.00
2014-4-11,87,72,59,68,62,54,87,72,41,30.26,30.12,8,1,0,0.00
2014-4-12,90,76,65,71,65,61,96,71,43,30.20,30.06,14,3,0,0.00
2014-4-13,88,75,64,73,68,63,96,80,57,30.12,29.99,12,3,0,0.02
2014-4-14,89,78,68,76,72,68,99,83,61,30.03,29.92,9,0,0,0.00
2014-4-15,86,77,71,78,74,70,99,90,72,29.97,29.89,9,1,0,0.00
2014-4-16,81,73,67,71,67,63,93,82,68,30.11,29.96,12,4,0,0.00
2014-4-17,91,75,69,77,71,67,98,88,60,30.15,30.06,12,4,0,1.93
2014-4-18,85,77,71,75,73,71,98,87,68,30.11,29.95,14,2,0,0.00
2014-4-19,79,74,69,75,69,61,99,85,71,30.04,29.92,17,5,0,0.32
2014-4-20,79,71,65,67,64,60,91,78,63,30.08,30.00,8,2,0,0.00
2014-4-21,77,69,60,68,63,58,96,83,67,30.09,29.96,14,3,0,0.00
2014-4-22,80,70,61,68,64,59,95,80,64,30.01,29.90,12,2,0,0.00
2014-4-23,80,72,62,69,66,62,98,83,67,30.01,29.92,12,3,0,0.00
2014-4-24,83,73,63,71,67,63,98,82,60,30.06,29.95,8,1,0,0.00
2014-4-25,86,75,65,72,68,64,98,79,55,30.06,29.97,11,2,0,0.00
2014-4-26,89,76,66,74,70,65,98,81,53,30.05,29.97,13,2,0,0.00
2014-4-27,94,79,68,76,72,67,99,79,47,30.03,29.94,6,0,0,0.00
2014-4-28,92,80,70,78,72,68,96,78,56,30.01,29.90,8,0,0,0.00
2014-4-29,93,82,74,78,74,72,98,79,52,30.02,29.89,10,1,0,0.00
2014-4-30,91,81,74,79,75,70,97,83,65,30.07,29.96,7,1,0,0.00
2014-5-1,90,80,72,78,75,70,98,84,63,30.07,29.97,11,1,0,0.00
2014-5-2,87,80,72,76,74,70,95,83,65,30.00,29.90,8,0,0,0.09
2014-5-3,85,75,70,78,72,69,97,91,78,30.03,29.92,7,1,0,0.19
2014-5-4,88,75,64,71,62,55,95,67,37,30.11,30.02,11,2,0,0.00
2014-5-5,91,75,59,69,63,58,97,69,36,30.10,29.97,8,2,0,0.00
2014-5-6,88,76,64,71,67,63,96,75,48,30.07,29.98,8,1,0,0.00
2014-5-7,91,78,66,75,69,65,98,77,44,30.15,30.02,10,2,0,0.00
2014-5-8,95,81,70,74,68,62,93,68,38,30.19,30.10,14,4,0,0.00
2014-5-9,95,81,70,72,69,63,94,70,40,30.19,30.06,18,3,0,0.00
2014-5-10,90,80,71,76,72,67,95,77,57,30.16,30.04,11,2,0,0.00
2014-5-11,93,80,72,77,72,65,96,77,44,30.14,30.04,11,2,0,0.00
2014-5-12,90,79,68,75,69,65,96,74,48,30.13,30.03,18,4,0,0.00
2014-5-13,91,80,72,77,73,70,96,79,57,30.07,29.96,18,6,0,0.00
2014-5-14,88,77,72,78,74,71,97,89,64,30.05,29.96,15,3,0,0.56
2014-5-15,86,79,73,80,75,72,99,89,79,30.02,29.94,11,2,0,0.00
2014-5-16,84,76,67,73,64,50,90,68,32,30.13,29.99,14,2,0,0.00
2014-5-17,86,73,60,66,60,56,88,67,46,30.15,30.05,15,4,0,0.00
2014-5-18,88,75,62,71,65,60,92,71,49,30.14,30.04,19,5,0,0.00
2014-5-19,88,76,64,70,65,62,96,71,48,30.16,30.08,18,5,0,0.00
2014-5-20,87,76,65,73,67,64,95,74,52,30.20,30.11,17,4,0,0.00
2014-5-21,89,77,65,72,67,63,94,73,46,30.19,30.11,13,2,0,0.00
2014-5-22,85,76,64,72,68,63,97,77,56,30.17,30.07,11,2,0,0.00
2014-5-23,87,78,70,75,72,69,98,82,60,30.14,30.05,15,3,0,0.00
2014-5-24,87,80,73,77,74,71,99,83,65,30.12,30.02,12,2,0,0.00
2014-5-25,88,80,73,77,74,72,98,82,65,30.14,30.03,12,1,0,0.00
2014-5-26,91,80,72,77,72,68,97,78,54,30.18,30.08,8,1,0,0.00
2014-5-27,91,80,71,76,72,68,97,78,56,30.16,30.05,11,1,0,0.00
2014-5-28,92,80,71,78,72,69,96,79,54,30.09,30.00,8,1,0,0.06
2014-5-29,89,78,72,78,73,70,98,87,63,30.05,29.98,13,1,0,0.48
2014-5-30,90,78,72,78,74,71,98,86,61,30.05,29.97,7,1,0,0.01
2014-5-31,90,78,71,78,74,70,98,87,61,30.05,29.97,9,1,0,0.50
2014-6-1,92,77,72,78,74,71,99,91,60,30.05,29.99,14,2,0,1.72
2014-6-2,83,76,73,80,75,72,99,96,85,30.09,30.01,13,4,0,0.28
2014-6-3,83,77,73,74,71,69,93,84,72,30.07,30.00,11,3,0,0.00
2014-6-4,87,78,69,75,70,66,91,78,61,30.02,29.93,9,1,0,0.01
2014-6-5,89,80,71,77,74,70,96,80,59,30.00,29.91,6,1,0,0.00
2014-6-6,91,81,72,77,73,70,95,78,55,30.02,29.92,11,1,0,0.00
2014-6-7,90,82,74,78,75,73,94,80,61,30.04,29.95,13,2,0,0.00
2014-6-8,89,82,75,78,76,73,96,82,65,30.03,29.93,13,2,0,0.00
2014-6-9,88,80,73,78,75,72,98,84,69,30.03,29.93,11,1,0,0.00
2014-6-10,90,80,73,79,74,71,96,82,66,30.05,29.98,6,0,0,0.00
2014-6-11,91,82,73,80,76,70,97,82,66,30.04,29.96,8,1,0,0.00
2014-6-12,89,80,71,78,74,71,99,85,65,30.05,29.96,9,0,0,0.47
2014-6-13,90,80,70,78,74,70,99,84,62,30.07,30.00,7,1,0,0.90
2014-6-14,92,79,72,81,70,-100,95,80,65,30.14,30.01,8,-10,0,0.00
2014-6-15,93,78,69,81,74,68,99,88,59,30.16,30.04,11,2,0,1.46
2014-6-16,94,78,70,81,73,70,99,87,56,30.17,30.07,22,2,0,0.42
2014-6-17,91,77,70,79,73,70,99,89,64,30.15,30.08,16,2,0,0.01
2014-6-18,88,75,71,78,72,70,99,92,67,30.15,30.07,9,2,0,1.08
2014-6-19,89,79,70,80,74,70,99,86,69,30.14,30.08,13,1,0,0.00
2014-6-20,89,81,72,79,75,71,97,83,67,30.11,30.02,11,2,0,0.01
2014-6-21,89,82,75,79,76,73,97,82,66,30.06,29.97,11,2,0,0.00
2014-6-22,90,82,76,80,76,74,96,81,66,30.04,29.94,8,2,0,0.00
2014-6-23,91,83,76,78,76,74,97,80,62,30.13,29.99,9,1,0,0.00
2014-6-24,92,83,75,80,76,74,97,81,60,30.16,30.09,11,2,0,0.00
2014-6-25,95,82,73,81,76,72,98,83,60,30.16,30.06,16,1,0,0.34
2014-6-26,97,80,72,81,75,71,99,87,51,30.13,30.00,9,1,0,0.60
2014-6-27,92,78,71,81,75,69,99,92,64,30.18,30.04,8,1,0,0.29
2014-6-28,94,80,71,81,75,71,100,87,58,30.17,30.08,6,0,0,0.15
2014-6-29,93,82,74,83,77,72,100,87,65,30.16,30.04,12,2,0,0.15
2014-6-30,92,81,74,82,77,74,99,89,60,30.11,29.93,16,2,0,0.17
2014-7-1,90,82,76,82,79,76,99,89,73,29.98,29.89,12,3,0,0.00
2014-7-2,91,84,77,82,79,76,99,86,74,30.02,29.89,13,2,0,0.34
2014-7-3,92,85,79,81,78,73,90,80,66,30.13,30.01,9,1,0,0.00
2014-7-4,92,84,76,81,77,73,93,79,65,30.15,30.08,8,1,0,0.00
2014-7-5,94,81,75,81,76,74,96,85,56,30.16,30.08,15,1,0,0.26
2014-7-6,92,81,74,81,76,72,98,85,61,30.12,30.03,12,1,0,0.00
2014-7-7,83,78,74,79,75,72,97,93,86,30.14,30.04,5,0,0,0.08
2014-7-8,93,81,74,82,76,73,98,86,61,30.16,30.08,17,2,0,0.34
2014-7-9,92,81,73,81,76,72,99,85,63,30.16,30.08,9,1,0,0.00
2014-7-10,90,78,72,81,75,71,99,92,68,30.14,30.07,9,0,0,1.66
2014-7-11,92,81,73,82,76,73,99,85,65,30.15,30.07,9,1,0,0.06
2014-7-12,92,78,73,82,76,73,99,93,66,30.15,30.09,9,1,0,0.69
2014-7-13,93,81,72,81,76,72,99,86,62,30.12,30.05,8,1,0,0.00
2014-7-14,92,81,75,82,77,72,98,86,66,30.12,30.04,11,1,0,0.04
2014-7-15,90,78,72,81,75,71,99,91,71,30.10,29.99,14,0,0,0.63
2014-7-16,90,80,75,81,77,74,99,90,71,30.02,29.97,14,2,0,0.60
2014-7-17,90,83,75,81,78,75,100,85,69,30.05,29.98,16,3,0,0.00
2014-7-18,92,84,77,80,77,76,97,81,63,30.10,30.02,11,1,0,0.00
2014-7-19,94,85,76,82,77,74,98,78,53,30.10,30.02,13,2,0,0.00
2014-7-20,93,84,76,82,77,73,95,79,62,30.08,30.00,8,1,0,0.00
2014-7-21,96,83,76,82,77,73,95,83,56,30.08,30.00,6,0,0,0.02
2014-7-22,90,78,74,82,75,73,99,93,74,30.11,30.01,5,0,0,0.97
2014-7-23,92,82,74,82,77,74,99,85,67,30.10,30.03,8,0,0,0.00
2014-7-24,92,84,76,82,78,75,97,83,64,30.09,30.02,8,0,0,0.03
2014-7-25,94,83,77,82,77,74,94,83,63,30.12,30.04,9,0,0,0.00
2014-7-26,91,82,76,81,78,74,96,85,67,30.14,30.06,5,0,0,0.00
2014-7-27,90,82,76,82,78,75,99,88,70,30.16,30.07,8,1,0,0.52
2014-7-28,91,84,76,81,78,75,99,82,62,30.11,30.04,12,1,0,0.00
2014-7-29,92,85,79,81,78,75,94,79,66,30.05,29.98,13,3,0,0.01
2014-7-30,92,86,79,82,78,77,95,79,68,30.02,29.95,11,1,0,0.00
2014-7-31,90,82,76,82,78,75,99,88,72,30.02,29.96,13,1,0,0.05
2014-8-1,92,82,76,82,77,74,97,85,64,30.02,29.93,9,1,0,0.46
2014-8-2,93,83,74,82,77,73,98,83,64,30.00,29.89,13,1,0,0.01
2014-8-3,92,83,75,82,79,73,97,86,68,29.97,29.88,8,1,0,0.15
2014-8-4,88,77,73,81,76,72,100,95,78,30.03,29.90,13,2,0,3.29
2014-8-5,92,81,75,82,78,75,100,89,69,30.11,29.98,8,1,0,0.02
2014-8-6,92,84,76,81,78,75,99,84,67,30.09,30.01,11,1,0,0.00
2014-8-7,92,83,77,83,78,75,98,86,68,30.07,29.96,14,1,0,0.68
2014-8-8,93,83,76,81,76,72,97,82,62,30.08,29.99,12,1,0,0.00
2014-8-9,93,83,75,82,77,73,97,82,66,30.11,30.02,7,0,0,0.00
2014-8-10,93,85,76,81,77,75,97,80,60,30.10,30.03,11,1,0,0.00
2014-8-11,95,85,76,81,77,75,98,79,58,30.10,30.01,6,1,0,0.00
2014-8-12,94,85,77,81,77,74,95,78,58,30.06,29.99,12,1,0,0.00
2014-8-13,93,84,78,82,78,74,95,82,66,30.07,30.00,5,0,0,0.10
2014-8-14,93,84,76,82,78,74,97,83,66,30.07,30.00,15,1,0,0.39
2014-8-15,91,80,74,82,77,73,99,91,68,30.10,30.00,11,1,0,0.65
2014-8-16,92,82,73,83,77,73,99,84,64,30.12,30.03,12,1,0,0.00
2014-8-17,94,83,76,82,78,74,97,84,61,30.13,30.05,12,1,0,0.25
2014-8-18,95,83,77,82,78,76,97,84,62,30.11,29.99,12,0,0,0.89
2014-8-19,94,85,77,82,78,76,97,82,63,30.07,29.99,5,0,0,0.00
2014-8-20,95,81,73,82,77,71,99,89,62,30.12,30.01,15,0,0,1.02
2014-8-21,96,80,75,82,77,74,99,90,56,30.14,30.05,6,0,0,0.73
2014-8-22,95,82,74,82,77,74,99,86,55,30.13,29.99,7,1,0,0.29
2014-8-23,93,82,74,82,77,74,99,85,64,30.02,29.87,11,1,0,0.13
2014-8-24,95,84,76,83,78,72,98,84,66,29.91,29.76,12,2,0,0.29
2014-8-25,95,82,76,83,78,75,98,86,62,29.84,29.75,12,2,0,0.01
2014-8-26,95,84,75,79,75,71,95,75,49,29.94,29.81,14,4,0,0.00
2014-8-27,96,83,72,79,74,70,94,75,48,30.01,29.91,14,1,0,0.00
2014-8-28,95,83,78,82,78,71,94,83,64,30.02,29.92,6,1,0,0.03
2014-8-29,97,82,75,83,77,71,97,86,57,30.12,30.00,8,1,0,0.03
2014-8-30,98,83,75,82,76,73,98,82,50,30.13,30.02,8,2,0,0.13
2014-8-31,97,79,74,81,75,73,98,86,54,30.13,30.05,13,2,0,0.20
2014-9-1,95,79,74,82,76,73,99,91,59,30.12,30.05,14,1,0,0.38
2014-9-2,94,80,73,81,75,71,99,88,62,30.11,30.00,10,1,0,0.00
2014-9-3,93,79,72,80,75,71,97,87,58,30.07,29.98,8,1,0,0.44
2014-9-4,92,82,74,79,76,73,98,83,60,30.14,30.02,8,1,0,0.00
2014-9-5,94,81,75,82,76,72,96,85,62,30.14,30.02,12,1,0,0.00
2014-9-6,96,81,74,82,75,72,97,84,52,30.09,29.98,14,1,0,0.01
2014-9-7,92,80,75,82,76,72,98,88,61,30.04,29.96,8,1,0,0.05
2014-9-8,95,80,73,80,76,72,97,87,58,30.08,29.98,6,0,0,0.26
2014-9-9,95,79,74,79,75,73,98,89,53,30.07,29.98,6,0,0,0.23
2014-9-10,74,74,73,73,73,73,98,97,97,30.01,29.98,0,0,0,0.00
2014-9-15,89,81,80,79,72,75,89,76,71,30.16,30.08,6,0,0,0.00
2014-9-16,94,81,75,80,76,72,98,85,58,30.15,29.99,9,0,0,0.03
2014-9-17,86,77,73,78,75,72,99,92,74,30.04,29.91,8,0,0,0.77
2014-9-18,89,79,73,80,76,73,100,91,72,29.97,29.89,6,1,0,1.97
2014-9-19,80,77,74,78,76,73,99,97,92,29.99,29.90,0,0,0,0.17
2014-9-20,85,76,74,80,76,74,100,97,80,29.98,29.91,5,0,0,0.02
2014-9-21,89,80,75,79,76,74,100,88,66,30.06,29.94,6,0,0,0.04
2014-9-22,88,78,74,80,76,72,99,92,76,30.07,29.97,8,0,0,0.01
2014-9-23,82,75,71,76,73,70,99,93,76,30.08,29.95,6,0,0,0.29
2014-9-24,90,79,73,80,75,72,98,88,65,30.07,29.98,11,1,0,0.19
2014-9-25,92,79,74,81,76,73,99,92,64,30.07,29.97,14,2,0,0.50
2014-9-26,91,77,74,81,76,73,99,94,71,30.02,29.94,8,2,0,0.26
2014-9-27,93,78,74,82,76,74,100,94,65,30.01,29.92,8,1,0,0.15
2014-9-28,93,79,74,82,76,74,100,93,66,30.01,29.92,13,1,0,0.06
2014-9-29,92,81,74,81,76,74,100,87,63,29.98,29.85,11,0,0,0.03
2014-9-30,88,81,75,80,77,75,100,88,74,29.91,29.84,11,2,0,0.03
2014-10-1,89,82,78,81,78,76,98,88,76,30.00,29.87,14,2,0,0.05
2014-10-2,90,82,76,81,78,76,99,87,70,30.06,29.97,7,1,0,0.00
2014-10-3,89,82,75,80,77,75,99,85,69,30.06,29.97,8,1,0,0.00
2014-10-4,86,81,74,80,76,68,96,85,75,30.01,29.86,16,3,0,0.04
2014-10-5,84,74,65,68,64,61,95,74,46,30.03,29.93,7,1,0,0.00
2014-10-6,89,76,65,75,69,63,95,82,56,30.07,29.99,12,1,0,0.02
2014-10-7,87,76,72,78,72,68,96,88,68,30.11,30.01,8,1,0,0.02
2014-10-8,91,79,72,79,74,71,99,84,62,30.14,30.02,10,1,0,0.00
2014-10-9,93,81,74,77,72,67,93,75,50,30.09,29.98,13,3,0,0.00
2014-10-10,90,81,72,77,72,70,96,77,56,30.07,29.95,15,3,0,0.00
2014-10-11,94,80,71,77,73,70,97,79,52,30.04,29.95,10,1,0,0.00
2014-10-12,95,79,71,79,74,70,98,87,51,30.07,29.97,9,1,0,0.57
2014-10-13,91,80,73,80,76,73,99,87,63,30.08,30.00,14,2,0,0.58
2014-10-14,91,80,75,80,75,74,98,87,67,30.04,29.94,8,1,0,0.06
2014-10-15,85,78,74,79,75,70,99,90,77,30.01,29.93,7,1,0,1.20
2014-10-16,83,75,66,71,67,65,96,78,61,30.02,29.92,12,2,0,0.00
2014-10-17,83,71,64,69,64,62,95,79,57,30.03,29.93,11,1,0,0.00
2014-10-18,84,72,61,70,65,60,96,79,56,30.02,29.94,9,1,0,0.00
2014-10-19,87,74,65,72,68,64,97,82,55,30.04,29.96,8,1,0,0.00
2014-10-20,91,77,66,75,70,65,97,80,53,30.05,29.93,5,0,0,0.00
2014-10-21,79,75,73,75,72,71,96,91,80,30.00,29.91,6,0,0,0.00
2014-10-22,82,76,71,76,73,71,99,90,74,30.00,29.92,6,0,0,0.00
2014-10-23,84,76,70,75,70,66,96,84,71,29.96,29.88,22,4,0,0.00
2014-10-24,86,75,68,73,66,62,85,75,62,29.95,29.84,14,4,0,0.00
2014-10-25,83,72,64,67,63,60,93,75,53,30.00,29.91,12,1,0,0.00
2014-10-26,84,71,62,67,63,60,93,77,51,30.05,29.95,8,1,0,0.00
2014-10-27,87,71,59,68,64,58,98,79,48,30.12,30.02,13,1,0,0.00
2014-10-28,88,74,64,71,67,63,97,79,51,30.16,30.06,12,1,0,0.00
2014-10-29,89,76,67,75,70,66,98,85,58,30.12,30.00,5,0,0,0.00
2014-10-30,87,76,67,74,71,66,99,86,64,30.02,29.89,8,0,0,0.00
2014-10-31,82,73,66,75,68,58,98,85,71,29.96,29.84,16,2,0,0.00
2014-11-1,75,66,55,63,56,45,88,70,61,30.19,29.94,26,5,0,0.00
2014-11-2,68,57,48,49,44,40,83,64,40,30.31,30.19,9,1,0,0.00
2014-11-3,78,64,50,61,54,44,84,71,53,30.34,30.25,13,3,0,0.00
2014-11-4,82,68,59,64,59,56,91,75,50,30.29,30.16,13,3,0,0.00
2014-11-5,85,73,64,69,65,61,92,77,56,30.22,30.08,12,3,0,0.00
2014-11-6,87,73,66,73,68,65,97,84,55,30.15,30.01,6,1,0,0.00
2014-11-7,80,70,64,72,66,63,99,87,65,30.03,29.93,6,1,0,0.00
2014-11-11,74,69,62,65,61,59,88,76,66,30.02,29.93,15,4,0,0.00
2014-11-12,81,68,58,67,61,56,95,80,57,30.07,29.98,12,2,0,0.00
2014-11-13,84,68,58,70,62,57,97,81,57,30.09,29.98,8,1,0,0.00
2014-11-14,77,66,60,68,63,57,97,89,72,30.15,30.00,13,2,0,0.00
2014-11-15,80,66,55,69,61,52,95,85,65,30.23,30.11,8,1,0,0.00
2014-11-16,86,73,63,73,68,63,99,86,61,30.20,30.06,8,1,0,0.00
2014-11-17,85,75,68,78,73,67,100,93,79,30.06,29.95,8,0,0,0.16
2014-11-18,71,61,50,71,59,45,99,94,80,30.28,29.99,13,2,0,0.14
2014-11-19,63,56,49,56,50,43,90,80,73,30.31,30.19,11,4,0,0.03
2014-11-20,76,64,54,64,58,53,96,81,62,30.24,30.11,13,5,0,0.00
2014-11-21,70,65,61,67,61,56,95,88,80,30.23,30.14,22,4,0,0.04
2014-11-22,81,76,71,74,72,71,98,89,76,30.18,30.07,16,6,0,0.01
2014-11-23,86,77,71,77,74,71,100,90,73,30.06,29.91,13,2,0,0.00
2014-11-24,88,79,74,79,75,73,99,88,68,30.05,29.95,2,0,0,0.00
2014-11-25,86,80,77,79,77,76,98,91,78,30.04,29.92,16,2,0,0.00
2014-11-26,78,65,52,76,62,49,99,89,62,30.24,29.92,23,2,0,0.38
2014-11-27,72,60,47,60,52,43,98,77,53,30.33,30.19,13,2,0,0.00
2014-11-28,67,59,49,50,44,35,81,59,33,30.32,30.21,11,2,0,0.00
2014-11-29,75,60,50,60,54,47,93,81,59,30.31,30.20,10,1,0,0.00
2014-11-30,80,67,55,63,58,54,96,77,50,30.31,30.20,14,3,0,0.00
2014-12-1,83,70,62,69,64,59,95,82,58,30.29,30.15,16,4,0,0.00
2014-12-2,81,74,66,72,68,65,96,81,68,30.20,30.10,12,4,0,0.00
2014-12-3,83,68,64,72,66,64,98,93,66,30.18,30.10,12,2,0,0.00
2014-12-17,61,60,59,60,59,59,99,97,96,30.20,30.17,2,0,0,0.00
2014-12-18,72,63,56,63,59,55,99,89,67,30.22,30.11,8,1,0,0.00
2014-12-19,76,62,51,61,57,50,99,85,55,30.16,30.04,7,0,0,0.00
2014-12-20,81,66,55,68,62,54,99,87,62,30.13,30.04,7,0,0,0.00
2014-12-21,79,70,61,72,67,61,100,90,75,30.13,30.02,7,0,0,0.00
2014-12-22,82,73,67,73,70,66,98,90,72,30.06,29.95,6,0,0,0.00
2014-12-23,84,74,67,75,71,66,100,90,70,30.00,29.90,10,2,0,0.00
2014-12-24,84,76,69,76,73,69,98,91,75,30.02,29.90,11,2,0,0.32
2014-12-25,73,68,63,68,62,58,99,85,68,30.22,30.02,13,2,0,0.00
2014-12-26,77,67,58,70,63,54,97,85,74,30.24,30.15,13,3,0,0.00
2014-12-27,80,70,67,76,68,67,100,92,79,30.28,30.16,6,1,0,0.00
2014-12-28,84,70,64,74,66,64,100,87,66,30.21,30.11,6,0,0,0.00
2014-12-29,82,72,64,75,70,63,100,93,77,30.17,30.08,4,0,0,0.00
2014-12-30,83,73,66,76,70,66,100,91,70,30.23,30.12,7,1,0,0.00
2014-12-31,78,72,68,73,69,67,97,91,82,30.27,30.16,10,2,0,0.00
2015-1-1,78,72,69,73,70,68,99,94,80,30.25,30.13,6,1,0,0.00
2015-1-2,85,74,67,75,70,67,100,89,68,30.27,30.15,6,1,0,0.00